createdAt,value
2023-02-14T00:01:28.184Z,103359.59
2023-02-14T00:04:00.568Z,103360.34
2023-02-14T00:06:31.850Z,103364.56
2023-02-14T00:08:59.907Z,103361.91
2023-02-14T00:11:27.629Z,103364.47
2023-02-14T00:14:13.973Z,103362.75
2023-02-14T00:16:43.445Z,103351.31
2023-02-14T00:19:14.454Z,103357.38
2023-02-14T00:21:42.608Z,103350.44
2023-02-14T00:24:17.778Z,103352.19
2023-02-14T00:26:45.659Z,103353.97
2023-02-14T00:29:18.346Z,103342.63
2023-02-14T00:31:46.202Z,103350.28
2023-02-14T00:34:16.978Z,103343.31
2023-02-14T00:36:46.726Z,103341.41
2023-02-14T00:39:18.511Z,103342.16
2023-02-14T00:41:46.748Z,103343.63
2023-02-14T00:44:14.319Z,103337.41
2023-02-14T00:46:44.032Z,103339.97
2023-02-14T00:49:11.785Z,103333.72
2023-02-14T00:51:40.212Z,103342.31
2023-02-14T00:54:07.947Z,103344.78
2023-02-14T00:56:35.472Z,103342.88
2023-02-14T00:59:03.177Z,103348.75
2023-02-14T01:01:32.039Z,103340.00
2023-02-14T01:03:59.875Z,103348.56
2023-02-14T01:06:27.771Z,103351.03
2023-02-14T01:08:58.004Z,103350.00
2023-02-14T01:11:28.663Z,103353.34
2023-02-14T01:13:58.671Z,103354.03
2023-02-14T01:16:29.286Z,103350.38
2023-02-14T01:19:00.889Z,103345.94
2023-02-14T01:21:32.646Z,103348.47
2023-02-14T01:24:05.525Z,103345.78
2023-02-14T01:26:35.248Z,103349.97
2023-02-14T01:29:05.061Z,103356.84
2023-02-14T01:31:35.713Z,103348.03
2023-02-14T01:34:03.894Z,103355.56
2023-02-14T01:36:37.680Z,103358.13
2023-02-14T01:39:12.517Z,103358.03
2023-02-14T01:41:44.257Z,103357.88
2023-02-14T01:44:14.864Z,103348.31
2023-02-14T01:46:45.636Z,103351.38
2023-02-14T01:49:25.572Z,103347.06
2023-02-14T01:52:03.851Z,103349.66
2023-02-14T01:54:40.597Z,103343.63
2023-02-14T01:57:15.238Z,103348.81
2023-02-14T01:59:52.867Z,103347.06
2023-02-14T02:02:23.822Z,103337.47
2023-02-14T02:04:56.238Z,103345.34
2023-02-14T02:07:29.434Z,103341.03
2023-02-14T02:10:05.249Z,103337.66
2023-02-14T02:12:38.254Z,103335.06
2023-02-14T02:15:07.561Z,103332.47
2023-02-14T02:18:11.582Z,103318.66
2023-02-14T02:21:15.176Z,103328.06
2023-02-14T02:24:09.616Z,103321.91
2023-02-14T02:27:12.929Z,103323.63
2023-02-14T02:30:27.844Z,103321.78
2023-02-14T02:33:08.822Z,103320.66
2023-02-14T02:36:12.554Z,103318.91
2023-02-14T02:39:05.711Z,103318.81
2023-02-14T02:41:59.003Z,103320.34
2023-02-14T02:45:12.209Z,103311.56
2023-02-14T02:48:05.440Z,103319.91
2023-02-14T02:51:01.357Z,103314.56
2023-02-14T02:53:50.825Z,103314.50
2023-02-14T02:56:49.646Z,103313.47
2023-02-14T02:59:33.123Z,103312.50
2023-02-14T03:02:20.961Z,103318.66
2023-02-14T03:04:56.604Z,103319.44
2023-02-14T03:07:37.458Z,103317.78
2023-02-14T03:10:21.017Z,103321.25
2023-02-14T03:13:09.181Z,103322.28
2023-02-14T03:15:46.303Z,103318.88
2023-02-14T03:18:45.394Z,103324.28
2023-02-14T03:21:33.972Z,103321.69
2023-02-14T03:24:36.618Z,103323.47
2023-02-14T03:27:31.075Z,103331.25
2023-02-14T03:30:45.400Z,103320.13
2023-02-14T03:33:46.686Z,103321.19
2023-02-14T03:36:46.209Z,103319.56
2023-02-14T03:39:43.650Z,103326.69
2023-02-14T03:42:28.567Z,103324.09
2023-02-14T03:44:59.234Z,103323.13
2023-02-14T03:47:34.532Z,103320.53
2023-02-14T03:50:19.364Z,103315.47
2023-02-14T03:52:53.847Z,103311.91
2023-02-14T03:55:34.644Z,103310.22
2023-02-14T03:58:16.437Z,103307.63
2023-02-14T04:00:50.385Z,103306.72
2023-02-14T04:03:20.996Z,103304.22
2023-02-14T04:05:52.421Z,103313.72
2023-02-14T04:08:27.583Z,103314.50
2023-02-14T04:11:00.771Z,103314.47
2023-02-14T04:13:29.721Z,103319.63
2023-02-14T04:15:57.283Z,103316.13
2023-02-14T04:18:43.750Z,103315.25
2023-02-14T04:21:11.833Z,103315.16
2023-02-14T04:23:39.377Z,103319.38
2023-02-14T04:26:06.966Z,103323.69
2023-02-14T04:28:35.111Z,103314.94
2023-02-14T04:31:06.621Z,103320.88
2023-02-14T04:33:34.381Z,103325.59
2023-02-14T04:36:01.893Z,103325.47
2023-02-14T04:38:29.361Z,103324.59
2023-02-14T04:40:57.186Z,103324.41
2023-02-14T04:43:24.852Z,103323.38
2023-02-14T04:45:52.339Z,103316.09
2023-02-14T04:48:19.994Z,103310.59
2023-02-14T04:50:55.439Z,103305.25
2023-02-14T04:53:23.074Z,103304.16
2023-02-14T04:55:51.433Z,103306.56
2023-02-14T04:58:19.090Z,103304.63
2023-02-14T05:00:46.570Z,103300.94
2023-02-14T05:03:14.273Z,103294.78
2023-02-14T05:05:41.723Z,103297.28
2023-02-14T05:08:10.519Z,103292.03
2023-02-14T05:10:39.198Z,103286.69
2023-02-14T05:13:06.812Z,103287.50
2023-02-14T05:15:34.868Z,103292.63
2023-02-14T05:18:05.647Z,103283.88
2023-02-14T05:20:33.437Z,103279.41
2023-02-14T05:23:03.351Z,103286.28
2023-02-14T05:25:32.030Z,103284.53
2023-02-14T05:27:59.579Z,103283.63
2023-02-14T05:30:28.101Z,103283.63
2023-02-14T05:32:55.901Z,103286.19
2023-02-14T05:35:24.043Z,103281.94
2023-02-14T05:37:51.748Z,103282.81
2023-02-14T05:40:19.480Z,103285.50
2023-02-14T05:42:46.958Z,103286.28
2023-02-14T05:45:15.086Z,103282.91
2023-02-14T05:47:42.651Z,103289.75
2023-02-14T05:50:11.022Z,103290.59
2023-02-14T05:52:38.773Z,103282.81
2023-02-14T05:55:07.577Z,103287.13
2023-02-14T05:57:35.877Z,103289.53
2023-02-14T06:00:06.859Z,103298.13
2023-02-14T06:02:40.799Z,103300.53
2023-02-14T06:05:09.626Z,103290.19
2023-02-14T06:07:37.139Z,103296.25
2023-02-14T06:10:05.288Z,103288.47
2023-02-14T06:12:32.938Z,103298.84
2023-02-14T06:15:00.527Z,103294.47
2023-02-14T06:17:28.037Z,103298.03
2023-02-14T06:19:55.682Z,103298.94
2023-02-14T06:22:23.209Z,103300.72
2023-02-14T06:24:50.667Z,103294.72
2023-02-14T06:27:18.327Z,103291.25
2023-02-14T06:29:45.798Z,103300.72
2023-02-14T06:32:13.603Z,103293.75
2023-02-14T06:34:41.457Z,103292.88
2023-02-14T06:37:08.935Z,103303.13
2023-02-14T06:39:36.374Z,103300.47
2023-02-14T06:42:04.070Z,103306.56
2023-02-14T06:44:31.716Z,103299.66
2023-02-14T06:46:59.262Z,103306.56
2023-02-14T06:49:26.787Z,103306.47
2023-02-14T06:51:54.396Z,103308.97
2023-02-14T06:54:22.046Z,103304.53
2023-02-14T06:56:49.674Z,103313.91
2023-02-14T06:59:17.416Z,103311.16
2023-02-14T07:01:45.091Z,103308.50
2023-02-14T07:04:12.757Z,103316.19
2023-02-14T07:06:40.371Z,103315.34
2023-02-14T07:09:08.047Z,103316.19
2023-02-14T07:11:35.597Z,103314.38
2023-02-14T07:14:03.244Z,103322.09
2023-02-14T07:16:31.105Z,103315.13
2023-02-14T07:18:58.760Z,103316.00
2023-02-14T07:21:26.273Z,103320.28
2023-02-14T07:23:53.991Z,103319.41
2023-02-14T07:26:21.795Z,103328.88
2023-02-14T07:28:50.168Z,103322.00
2023-02-14T07:31:21.048Z,103323.78
2023-02-14T07:33:50.419Z,103322.00
2023-02-14T07:36:18.313Z,103324.59
2023-02-14T07:38:46.036Z,103327.28
2023-02-14T07:41:13.612Z,103328.25
2023-02-14T07:43:41.301Z,103328.31
2023-02-14T07:46:09.044Z,103327.50
2023-02-14T07:48:36.631Z,103329.44
2023-02-14T07:51:04.178Z,103331.31
2023-02-14T07:53:32.021Z,103327.00
2023-02-14T07:55:59.528Z,103329.88
2023-02-14T07:58:27.123Z,103335.19
2023-02-14T08:00:55.099Z,103331.88
2023-02-14T08:03:22.752Z,103330.25
2023-02-14T08:05:57.270Z,103332.13
2023-02-14T08:08:29.750Z,103331.38
2023-02-14T08:10:57.942Z,103322.97
2023-02-14T08:13:25.639Z,103331.84
2023-02-14T08:16:05.902Z,103318.25
2023-02-14T08:18:38.043Z,103321.97
2023-02-14T08:21:09.142Z,103316.94
2023-02-14T08:23:38.149Z,103319.78
2023-02-14T08:26:06.068Z,103315.72
2023-02-14T08:28:34.900Z,103310.75
2023-02-14T08:31:04.902Z,103317.88
2023-02-14T08:33:32.771Z,103314.78
2023-02-14T08:36:00.742Z,103327.22
2023-02-14T08:38:29.536Z,103317.16
2023-02-14T08:41:03.820Z,103316.81
2023-02-14T08:43:34.287Z,103318.06
2023-02-14T08:46:02.470Z,103315.19
2023-02-14T08:48:30.294Z,103307.03
2023-02-14T08:50:58.210Z,103311.03
2023-02-14T08:53:25.732Z,103312.41
2023-02-14T08:55:53.243Z,103305.94
2023-02-14T08:58:20.825Z,103312.50
2023-02-14T09:00:48.435Z,103312.28
2023-02-14T09:03:16.032Z,103306.78
2023-02-14T09:05:43.700Z,103308.28
2023-02-14T09:08:11.369Z,103301.94
2023-02-14T09:10:38.914Z,103299.03
2023-02-14T09:13:07.363Z,103293.59
2023-02-14T09:15:34.960Z,103294.25
2023-02-14T09:18:02.733Z,103300.09
2023-02-14T09:20:31.203Z,103292.91
2023-02-14T09:22:58.877Z,103298.72
2023-02-14T09:25:26.446Z,103294.94
2023-02-14T09:27:54.368Z,103289.47
2023-02-14T09:30:21.928Z,103287.38
2023-02-14T09:32:53.051Z,103298.38
2023-02-14T09:35:39.691Z,103295.38
2023-02-14T09:38:19.662Z,103295.84
2023-02-14T09:40:48.772Z,103295.56
2023-02-14T09:43:36.607Z,103295.25
2023-02-14T09:46:11.955Z,103299.16
2023-02-14T09:48:46.842Z,103299.59
2023-02-14T09:51:25.529Z,103301.03
2023-02-14T09:54:04.140Z,103297.13
2023-02-14T09:57:03.236Z,103278.41
2023-02-14T09:59:50.619Z,103280.59
2023-02-14T10:02:51.409Z,103278.47
2023-02-14T10:05:29.303Z,103272.91
2023-02-14T10:08:20.600Z,103269.00
2023-02-14T10:10:59.506Z,103272.78
2023-02-14T10:13:44.455Z,103266.22
2023-02-14T10:16:28.344Z,103262.25
2023-02-14T10:19:34.760Z,103264.44
2023-02-14T10:22:17.101Z,103267.31
2023-02-14T10:24:55.938Z,103263.25
2023-02-14T10:27:39.680Z,103260.94
2023-02-14T10:30:17.118Z,103262.19
2023-02-14T10:33:01.326Z,103261.69
2023-02-14T10:35:55.028Z,103270.78
2023-02-14T10:38:41.046Z,103271.84
2023-02-14T10:41:53.215Z,103269.59
2023-02-14T10:44:46.858Z,103262.84
2023-02-14T10:47:47.012Z,103261.38
2023-02-14T10:50:50.736Z,103260.75
2023-02-14T10:53:33.925Z,103267.97
2023-02-14T10:56:28.231Z,103253.28
2023-02-14T10:58:58.949Z,103245.66
2023-02-14T11:01:26.734Z,103249.47
2023-02-14T11:04:06.476Z,103252.31
2023-02-14T11:06:34.877Z,103253.44
2023-02-14T11:09:03.465Z,103248.44
2023-02-14T11:11:42.248Z,103241.66
2023-02-14T11:14:33.426Z,103242.66
2023-02-14T11:17:26.903Z,103233.13
2023-02-14T11:20:20.406Z,103235.06
2023-02-14T11:22:49.071Z,103234.28
2023-02-14T11:25:28.319Z,103224.84
2023-02-14T11:28:17.192Z,103222.34
2023-02-14T11:30:49.147Z,103221.63
2023-02-14T11:33:42.742Z,103219.19
2023-02-14T11:36:17.530Z,103221.94
2023-02-14T11:38:56.322Z,103215.97
2023-02-14T11:41:25.177Z,103210.88
2023-02-14T11:44:15.958Z,103203.13
2023-02-14T11:46:52.786Z,103202.34
2023-02-14T11:49:33.400Z,103204.25
2023-02-14T11:52:19.591Z,103204.38
2023-02-14T11:54:49.524Z,103193.91
2023-02-14T11:57:33.307Z,103190.47
2023-02-14T12:00:14.005Z,103184.41
2023-02-14T12:02:46.193Z,103181.81
2023-02-14T12:05:31.262Z,103171.34
2023-02-14T12:08:03.275Z,103174.84
2023-02-14T12:10:37.640Z,103170.50
2023-02-14T12:13:21.827Z,103165.28
2023-02-14T12:15:55.013Z,103162.69
2023-02-14T12:18:42.689Z,103153.94
2023-02-14T12:21:12.958Z,103151.34
2023-02-14T12:24:05.775Z,103149.66
2023-02-14T12:26:40.592Z,103135.66
2023-02-14T12:29:26.212Z,103135.72
2023-02-14T12:31:59.625Z,103132.22
2023-02-14T12:34:27.657Z,103134.88
2023-02-14T12:37:34.374Z,103133.19
2023-02-14T12:40:20.412Z,103115.66
2023-02-14T12:43:22.134Z,103121.81
2023-02-14T12:46:19.360Z,103112.16
2023-02-14T12:49:29.054Z,103111.28
2023-02-14T12:52:43.862Z,103108.63
2023-02-14T12:55:54.945Z,103104.28
2023-02-14T12:58:40.795Z,103100.75
2023-02-14T13:01:38.859Z,103095.47
2023-02-14T13:04:29.000Z,103091.06
2023-02-14T13:07:27.255Z,103083.16
2023-02-14T13:10:22.433Z,103091.97
2023-02-14T13:13:31.295Z,103084.03
2023-02-14T13:16:27.524Z,103078.78
2023-02-14T13:19:49.667Z,103078.75
2023-02-14T13:22:24.137Z,103072.59
2023-02-14T13:25:00.664Z,103073.47
2023-02-14T13:27:34.856Z,103069.94
2023-02-14T13:30:13.472Z,103065.53
2023-02-14T13:32:46.635Z,103058.47
2023-02-14T13:35:23.394Z,103058.44
2023-02-14T13:38:05.171Z,103050.53
2023-02-14T13:40:34.332Z,103046.09
2023-02-14T13:43:02.829Z,103051.38
2023-02-14T13:45:39.324Z,103046.09
2023-02-14T13:48:27.438Z,103043.44
2023-02-14T13:51:01.026Z,103043.44
2023-02-14T13:53:36.464Z,103038.16
2023-02-14T13:56:32.668Z,103034.59
2023-02-14T13:59:05.472Z,103036.34
2023-02-14T14:01:48.356Z,103034.59
2023-02-14T14:04:28.454Z,103029.31
2023-02-14T14:07:04.765Z,103022.25
2023-02-14T14:09:44.811Z,103023.13
2023-02-14T14:12:27.258Z,103019.56
2023-02-14T14:15:05.146Z,103019.53
2023-02-14T14:17:46.907Z,103018.63
2023-02-14T14:20:18.734Z,103015.09
2023-02-14T14:22:54.896Z,103010.66
2023-02-14T14:25:39.769Z,103008.91
2023-02-14T14:28:20.749Z,103005.38
2023-02-14T14:30:48.646Z,103012.41
2023-02-14T14:33:25.812Z,103006.25
2023-02-14T14:36:08.298Z,103007.16
2023-02-14T14:38:50.811Z,102999.25
2023-02-14T14:41:18.527Z,103008.94
2023-02-14T14:43:47.571Z,102993.06
2023-02-14T14:46:16.330Z,102998.34
2023-02-14T14:48:49.999Z,102995.72
2023-02-14T14:51:29.406Z,102996.59
2023-02-14T14:54:03.377Z,102997.44
2023-02-14T14:56:49.591Z,102985.97
2023-02-14T14:59:30.872Z,102993.91
2023-02-14T15:01:58.655Z,102993.00
2023-02-14T15:04:33.375Z,102987.69
2023-02-14T15:07:28.408Z,102985.94
2023-02-14T15:09:56.380Z,102980.59
2023-02-14T15:12:43.958Z,102978.81
2023-02-14T15:15:16.662Z,102980.56
2023-02-14T15:17:46.415Z,102983.25
2023-02-14T15:20:20.574Z,102982.38
2023-02-14T15:22:51.975Z,102980.63
2023-02-14T15:25:26.862Z,102979.78
2023-02-14T15:27:54.814Z,102988.59
2023-02-14T15:30:25.987Z,102990.38
2023-02-14T15:32:54.219Z,102990.38
2023-02-14T15:35:33.243Z,102986.88
2023-02-14T15:38:06.980Z,102986.91
2023-02-14T15:40:36.197Z,102984.31
2023-02-14T15:43:18.780Z,102984.34
2023-02-14T15:45:51.964Z,102987.03
2023-02-14T15:48:28.822Z,102985.28
2023-02-14T15:51:00.358Z,102973.84
2023-02-14T15:53:35.842Z,102970.38
2023-02-14T15:56:07.647Z,102973.03
2023-02-14T15:58:39.002Z,102968.69
2023-02-14T16:01:08.332Z,102965.19
2023-02-14T16:03:43.906Z,102972.22
2023-02-14T16:06:38.288Z,102964.38
2023-02-14T16:09:28.229Z,102969.66
2023-02-14T16:11:56.681Z,102976.72
2023-02-14T16:14:37.106Z,102969.69
2023-02-14T16:17:11.790Z,102966.19
2023-02-14T16:19:46.044Z,102976.75
2023-02-14T16:22:31.999Z,102970.63
2023-02-14T16:24:59.851Z,102970.59
2023-02-14T16:27:27.943Z,102967.06
2023-02-14T16:29:55.502Z,102976.75
2023-02-14T16:32:24.685Z,102974.06
2023-02-14T16:34:52.550Z,102971.44
2023-02-14T16:37:23.635Z,102972.28
2023-02-14T16:39:54.627Z,102980.19
2023-02-14T16:42:22.424Z,102983.69
2023-02-14T16:44:51.161Z,102977.50
2023-02-14T16:47:20.919Z,102972.22
2023-02-14T16:49:50.774Z,102984.47
2023-02-14T16:52:24.982Z,102973.00
2023-02-14T16:54:54.059Z,102977.38
2023-02-14T16:57:39.864Z,102968.53
2023-02-14T17:00:09.579Z,102962.31
2023-02-14T17:02:37.949Z,102968.41
2023-02-14T17:05:06.302Z,102970.97
2023-02-14T17:07:33.931Z,102972.63
2023-02-14T17:10:18.311Z,102969.97
2023-02-14T17:12:49.918Z,102976.00
2023-02-14T17:15:21.508Z,102981.22
2023-02-14T17:17:52.352Z,102976.78
2023-02-14T17:20:22.040Z,102983.72
2023-02-14T17:22:50.203Z,102978.38
2023-02-14T17:25:18.019Z,102981.81
2023-02-14T17:27:46.313Z,102985.25
2023-02-14T17:30:16.008Z,102988.66
2023-02-14T17:32:44.263Z,102985.06
2023-02-14T17:35:11.977Z,102985.84
2023-02-14T17:37:39.723Z,102982.22
2023-02-14T17:40:09.913Z,102989.09
2023-02-14T17:42:38.767Z,102987.22
2023-02-14T17:45:08.365Z,102995.00
2023-02-14T17:47:36.124Z,102994.00
2023-02-14T17:50:04.086Z,102990.44
2023-02-14T17:52:32.171Z,102987.72
2023-02-14T17:55:00.125Z,102993.78
2023-02-14T17:57:27.782Z,102988.41
2023-02-14T17:59:55.543Z,102992.63
2023-02-14T18:02:23.033Z,102993.41
2023-02-14T18:04:50.827Z,102994.16
2023-02-14T18:07:18.513Z,102992.34
2023-02-14T18:09:46.370Z,102988.72
2023-02-14T18:12:15.150Z,102989.50
2023-02-14T18:14:43.127Z,102987.59
2023-02-14T18:17:13.392Z,102983.97
2023-02-14T18:19:40.976Z,102974.25
2023-02-14T18:22:08.523Z,102984.63
2023-02-14T18:24:36.536Z,102980.09
2023-02-14T18:27:06.241Z,102981.63
2023-02-14T18:29:35.329Z,102979.66
2023-02-14T18:32:04.829Z,102982.06
2023-02-14T18:34:32.862Z,102975.78
2023-02-14T18:37:02.731Z,102971.25
2023-02-14T18:39:30.461Z,102974.63
2023-02-14T18:41:59.954Z,102975.38
2023-02-14T18:44:29.264Z,102972.63
2023-02-14T18:46:56.972Z,102971.59
2023-02-14T18:49:24.851Z,102972.31
2023-02-14T18:51:52.675Z,102963.44
2023-02-14T18:54:20.334Z,102963.31
2023-02-14T18:56:47.946Z,102963.22
2023-02-14T18:59:16.682Z,102960.50
2023-02-14T19:01:45.932Z,102955.09
2023-02-14T19:04:14.306Z,102952.34
2023-02-14T19:06:42.859Z,102947.75
2023-02-14T19:09:14.337Z,102951.63
2023-02-14T19:11:42.315Z,102940.75
2023-02-14T19:14:10.859Z,102936.16
2023-02-14T19:16:50.142Z,102929.03
2023-02-14T19:19:18.281Z,102927.91
2023-02-14T19:21:46.384Z,102932.19
2023-02-14T19:24:16.540Z,102933.81
2023-02-14T19:26:44.358Z,102933.66
2023-02-14T19:29:17.897Z,102931.00
2023-02-14T19:31:49.817Z,102929.97
2023-02-14T19:34:28.194Z,102930.59
2023-02-14T19:37:01.322Z,102930.25
2023-02-14T19:39:31.536Z,102930.91
2023-02-14T19:42:00.690Z,102923.72
2023-02-14T19:44:29.407Z,102919.16
2023-02-14T19:47:00.055Z,102913.88
2023-02-14T19:49:29.106Z,102919.00
2023-02-14T19:51:58.886Z,102917.19
2023-02-14T19:54:26.394Z,102911.91
2023-02-14T19:56:56.168Z,102912.69
2023-02-14T19:59:23.887Z,102908.22
2023-02-14T20:01:56.829Z,102914.25
2023-02-14T20:04:29.228Z,102908.91
2023-02-14T20:06:57.788Z,102918.34
2023-02-14T20:09:25.963Z,102913.00
2023-02-14T20:11:56.662Z,102910.13
2023-02-14T20:14:35.948Z,102906.28
2023-02-14T20:17:08.670Z,102904.19
2023-02-14T20:19:37.969Z,102907.53
2023-02-14T20:22:08.234Z,102904.75
2023-02-14T20:24:35.953Z,102901.22
2023-02-14T20:27:03.959Z,102895.91
2023-02-14T20:29:32.299Z,102900.19
2023-02-14T20:32:01.627Z,102896.66
2023-02-14T20:34:29.402Z,102888.72
2023-02-14T20:36:59.196Z,102893.81
2023-02-14T20:39:35.168Z,102891.13
2023-02-14T20:42:03.677Z,102890.97
2023-02-14T20:44:31.569Z,102895.25
2023-02-14T20:46:59.103Z,102894.22
2023-02-14T20:49:29.828Z,102896.72
2023-02-14T20:51:58.391Z,102892.31
2023-02-14T20:54:29.440Z,102891.31
2023-02-14T20:56:57.939Z,102890.31
2023-02-14T20:59:27.337Z,102885.84
2023-02-14T21:01:59.547Z,102883.97
2023-02-14T21:04:29.555Z,102877.72
2023-02-14T21:06:57.928Z,102874.19
2023-02-14T21:09:25.589Z,102878.50
2023-02-14T21:11:54.026Z,102872.38
2023-02-14T21:14:21.790Z,102862.81
2023-02-14T21:16:49.882Z,102868.78
2023-02-14T21:19:17.646Z,102860.03
2023-02-14T21:21:45.689Z,102863.41
2023-02-14T21:24:16.102Z,102858.94
2023-02-14T21:26:44.275Z,102861.34
2023-02-14T21:29:12.081Z,102863.81
2023-02-14T21:31:39.994Z,102863.59
2023-02-14T21:34:07.634Z,102866.94
2023-02-14T21:36:35.992Z,102865.06
2023-02-14T21:39:05.881Z,102864.94
2023-02-14T21:41:36.129Z,102864.78
2023-02-14T21:44:05.141Z,102861.19
2023-02-14T21:46:38.299Z,102857.66
2023-02-14T21:49:25.553Z,102850.59
2023-02-14T21:51:53.196Z,102855.69
2023-02-14T21:54:20.715Z,102856.47
2023-02-14T21:56:49.847Z,102858.91
2023-02-14T21:59:17.865Z,102844.75
2023-02-14T22:01:45.587Z,102848.84
2023-02-14T22:04:13.430Z,102844.31
2023-02-14T22:06:42.831Z,102840.78
2023-02-14T22:09:14.029Z,102841.50
2023-02-14T22:11:42.046Z,102843.13
2023-02-14T22:14:11.205Z,102842.13
2023-02-14T22:16:39.259Z,102840.25
2023-02-14T22:19:12.504Z,102847.09
2023-02-14T22:21:40.061Z,102844.34
2023-02-14T22:24:08.939Z,102840.72
2023-02-14T22:26:41.056Z,102836.31
2023-02-14T22:29:12.719Z,102832.78
2023-02-14T22:31:43.544Z,102842.16
2023-02-14T22:34:17.698Z,102846.41
2023-02-14T22:36:46.086Z,102840.28
2023-02-14T22:39:16.072Z,102847.06
2023-02-14T22:41:44.242Z,102837.31
2023-02-14T22:44:13.835Z,102846.72
2023-02-14T22:46:41.926Z,102840.53
2023-02-14T22:49:09.730Z,102840.41
2023-02-14T22:51:41.066Z,102836.88
2023-02-14T22:54:13.339Z,102839.34
2023-02-14T22:56:45.034Z,102835.81
2023-02-14T22:59:21.726Z,102835.44
2023-02-14T23:01:51.782Z,102839.66
2023-02-14T23:04:22.547Z,102839.66
2023-02-14T23:06:52.857Z,102837.00
2023-02-14T23:09:21.802Z,102829.03
2023-02-14T23:11:50.989Z,102827.19
2023-02-14T23:14:38.143Z,102826.31
2023-02-14T23:17:16.195Z,102822.69
2023-02-14T23:20:06.481Z,102824.41
2023-02-14T23:22:37.961Z,102826.06
2023-02-14T23:25:10.474Z,102821.66
2023-02-14T23:27:45.380Z,102824.19
2023-02-14T23:30:18.893Z,102827.56
2023-02-14T23:32:46.682Z,102832.59
2023-02-14T23:35:14.681Z,102836.03
2023-02-14T23:37:42.564Z,102832.44
2023-02-14T23:40:10.741Z,102833.28
2023-02-14T23:42:38.611Z,102827.16
2023-02-14T23:45:25.572Z,102828.97
2023-02-14T23:47:53.373Z,102830.69
2023-02-14T23:50:21.130Z,102818.56
2023-02-14T23:52:48.602Z,102824.66
2023-02-14T23:55:16.438Z,102822.81
2023-02-14T23:57:43.926Z,102825.25
